sensor_id;sensor_type;location;lat;lon;timestamp;pressure;altitude;pressure_sealevel;temperature;humidity
74633;BME280;63139;52.018;8.552;2024-03-07T00:00:13;101565.91;;;4.03;100.00
74633;BME280;63139;52.018;8.552;2024-03-07T00:02:46;101564.94;;;4.18;100.00
74633;BME280;63139;52.018;8.552;2024-03-07T00:05:17;101566.00;;;4.28;100.00
74633;BME280;63139;52.018;8.552;2024-03-07T00:07:47;101559.34;;;4.37;100.00
74633;BME280;63139;52.018;8.552;2024-03-07T00:10:16;101554.38;;;4.45;100.00
74633;BME280;63139;52.018;8.552;2024-03-07T00:12:44;101562.81;;;4.50;100.00
74633;BME280;63139;52.018;8.552;2024-03-07T00:15:13;101555.47;;;4.55;100.00
74633;BME280;63139;52.018;8.552;2024-03-07T00:17:42;101554.53;;;4.56;100.00
74633;BME280;63139;52.018;8.552;2024-03-07T00:20:11;101561.66;;;4.54;100.00
74633;BME280;63139;52.018;8.552;2024-03-07T00:22:43;101554.09;;;4.50;100.00
74633;BME280;63139;52.018;8.552;2024-03-07T00:25:12;101552.84;;;4.43;100.00
74633;BME280;63139;52.018;8.552;2024-03-07T00:27:41;101548.09;;;4.35;100.00
74633;BME280;63139;52.018;8.552;2024-03-07T00:30:12;101553.19;;;4.24;100.00
74633;BME280;63139;52.018;8.552;2024-03-07T00:32:45;101558.22;;;4.14;100.00
74633;BME280;63139;52.018;8.552;2024-03-07T00:35:14;101559.75;;;4.04;100.00
74633;BME280;63139;52.018;8.552;2024-03-07T00:37:42;101552.88;;;3.89;100.00
74633;BME280;63139;52.018;8.552;2024-03-07T00:40:12;101561.13;;;3.83;100.00
74633;BME280;63139;52.018;8.552;2024-03-07T00:42:41;101558.47;;;3.70;100.00
74633;BME280;63139;52.018;8.552;2024-03-07T00:45:09;101558.28;;;3.59;100.00
74633;BME280;63139;52.018;8.552;2024-03-07T00:47:37;101565.03;;;3.49;100.00
74633;BME280;63139;52.018;8.552;2024-03-07T00:50:06;101563.09;;;3.38;100.00
74633;BME280;63139;52.018;8.552;2024-03-07T00:52:35;101563.75;;;3.28;100.00
74633;BME280;63139;52.018;8.552;2024-03-07T00:55:04;101567.88;;;3.18;100.00
74633;BME280;63139;52.018;8.552;2024-03-07T00:57:36;101554.59;;;3.06;100.00
74633;BME280;63139;52.018;8.552;2024-03-07T01:00:06;101557.66;;;2.99;100.00
74633;BME280;63139;52.018;8.552;2024-03-07T01:02:39;101552.25;;;2.88;100.00
74633;BME280;63139;52.018;8.552;2024-03-07T01:05:10;101559.63;;;2.81;100.00
74633;BME280;63139;52.018;8.552;2024-03-07T01:07:40;101554.94;;;2.72;100.00
74633;BME280;63139;52.018;8.552;2024-03-07T01:10:09;101558.00;;;2.64;100.00
74633;BME280;63139;52.018;8.552;2024-03-07T01:12:40;101561.94;;;2.57;100.00
74633;BME280;63139;52.018;8.552;2024-03-07T01:15:10;101555.38;;;2.50;100.00
74633;BME280;63139;52.018;8.552;2024-03-07T01:17:38;101560.84;;;2.46;100.00
74633;BME280;63139;52.018;8.552;2024-03-07T01:20:07;101551.03;;;2.35;100.00
74633;BME280;63139;52.018;8.552;2024-03-07T01:22:36;101553.72;;;2.33;100.00
74633;BME280;63139;52.018;8.552;2024-03-07T01:25:04;101552.31;;;2.28;100.00
74633;BME280;63139;52.018;8.552;2024-03-07T01:27:33;101545.66;;;2.22;100.00
74633;BME280;63139;52.018;8.552;2024-03-07T01:30:03;101546.84;;;2.17;100.00
74633;BME280;63139;52.018;8.552;2024-03-07T01:32:34;101543.69;;;2.12;100.00
74633;BME280;63139;52.018;8.552;2024-03-07T01:35:03;101539.66;;;2.06;100.00
74633;BME280;63139;52.018;8.552;2024-03-07T01:37:33;101543.34;;;2.02;100.00
74633;BME280;63139;52.018;8.552;2024-03-07T01:40:01;101543.72;;;1.96;100.00
74633;BME280;63139;52.018;8.552;2024-03-07T01:42:29;101534.25;;;1.93;100.00
74633;BME280;63139;52.018;8.552;2024-03-07T01:44:57;101525.78;;;1.90;100.00
74633;BME280;63139;52.018;8.552;2024-03-07T01:47:27;101528.63;;;1.85;100.00
74633;BME280;63139;52.018;8.552;2024-03-07T01:49:55;101531.50;;;1.81;100.00
74633;BME280;63139;52.018;8.552;2024-03-07T01:52:24;101531.72;;;1.78;100.00
74633;BME280;63139;52.018;8.552;2024-03-07T01:54:52;101535.31;;;1.75;100.00
74633;BME280;63139;52.018;8.552;2024-03-07T01:57:21;101528.50;;;1.73;100.00
74633;BME280;63139;52.018;8.552;2024-03-07T01:59:49;101527.00;;;1.69;100.00
74633;BME280;63139;52.018;8.552;2024-03-07T02:02:18;101528.00;;;1.66;100.00
74633;BME280;63139;52.018;8.552;2024-03-07T02:04:47;101520.31;;;1.63;100.00
74633;BME280;63139;52.018;8.552;2024-03-07T02:07:16;101523.13;;;1.60;100.00
74633;BME280;63139;52.018;8.552;2024-03-07T02:09:43;101520.78;;;1.55;100.00
74633;BME280;63139;52.018;8.552;2024-03-07T02:12:11;101524.31;;;1.54;100.00
74633;BME280;63139;52.018;8.552;2024-03-07T02:14:40;101524.31;;;1.54;100.00
74633;BME280;63139;52.018;8.552;2024-03-07T02:17:09;101520.94;;;1.52;100.00
74633;BME280;63139;52.018;8.552;2024-03-07T02:19:37;101521.09;;;1.49;100.00
74633;BME280;63139;52.018;8.552;2024-03-07T02:22:06;101519.41;;;1.48;100.00
74633;BME280;63139;52.018;8.552;2024-03-07T02:24:34;101510.84;;;1.46;100.00
74633;BME280;63139;52.018;8.552;2024-03-07T02:27:02;101513.44;;;1.46;100.00
74633;BME280;63139;52.018;8.552;2024-03-07T02:29:30;101514.44;;;1.44;100.00
74633;BME280;63139;52.018;8.552;2024-03-07T02:31:58;101509.50;;;1.39;100.00
74633;BME280;63139;52.018;8.552;2024-03-07T02:34:26;101509.56;;;1.38;100.00
74633;BME280;63139;52.018;8.552;2024-03-07T02:36:54;101504.50;;;1.35;100.00
74633;BME280;63139;52.018;8.552;2024-03-07T02:39:23;101513.50;;;1.29;100.00
74633;BME280;63139;52.018;8.552;2024-03-07T02:41:52;101511.06;;;1.26;100.00
74633;BME280;63139;52.018;8.552;2024-03-07T02:44:20;101504.34;;;1.22;100.00
74633;BME280;63139;52.018;8.552;2024-03-07T02:46:48;101505.44;;;1.18;100.00
74633;BME280;63139;52.018;8.552;2024-03-07T02:49:15;101497.78;;;1.15;100.00
74633;BME280;63139;52.018;8.552;2024-03-07T02:51:43;101499.63;;;1.13;100.00
74633;BME280;63139;52.018;8.552;2024-03-07T02:54:12;101505.84;;;1.10;100.00
74633;BME280;63139;52.018;8.552;2024-03-07T02:56:41;101505.16;;;1.07;100.00
74633;BME280;63139;52.018;8.552;2024-03-07T02:59:10;101509.72;;;1.03;100.00
74633;BME280;63139;52.018;8.552;2024-03-07T03:01:38;101506.34;;;1.01;100.00
74633;BME280;63139;52.018;8.552;2024-03-07T03:04:06;101504.72;;;0.99;100.00
74633;BME280;63139;52.018;8.552;2024-03-07T03:06:34;101513.66;;;0.95;100.00
74633;BME280;63139;52.018;8.552;2024-03-07T03:09:02;101513.78;;;0.92;100.00
74633;BME280;63139;52.018;8.552;2024-03-07T03:11:32;101513.13;;;0.88;100.00
74633;BME280;63139;52.018;8.552;2024-03-07T03:14:01;101507.16;;;0.86;100.00
74633;BME280;63139;52.018;8.552;2024-03-07T03:16:30;101515.97;;;0.84;100.00
74633;BME280;63139;52.018;8.552;2024-03-07T03:19:13;101505.72;;;0.81;100.00
74633;BME280;63139;52.018;8.552;2024-03-07T03:21:41;101509.31;;;0.78;100.00
74633;BME280;63139;52.018;8.552;2024-03-07T03:24:10;101503.34;;;0.76;100.00
74633;BME280;63139;52.018;8.552;2024-03-07T03:26:38;101505.94;;;0.76;100.00
74633;BME280;63139;52.018;8.552;2024-03-07T03:29:11;101514.66;;;0.75;100.00
74633;BME280;63139;52.018;8.552;2024-03-07T03:31:41;101500.97;;;0.71;100.00
74633;BME280;63139;52.018;8.552;2024-03-07T03:34:08;101503.66;;;0.70;100.00
74633;BME280;63139;52.018;8.552;2024-03-07T03:36:37;101500.28;;;0.68;100.00
74633;BME280;63139;52.018;8.552;2024-03-07T03:39:05;101499.44;;;0.67;100.00
74633;BME280;63139;52.018;8.552;2024-03-07T03:41:34;101507.34;;;0.66;100.00
74633;BME280;63139;52.018;8.552;2024-03-07T03:44:03;101497.94;;;0.63;100.00
74633;BME280;63139;52.018;8.552;2024-03-07T03:46:34;101500.69;;;0.60;100.00
74633;BME280;63139;52.018;8.552;2024-03-07T03:49:02;101499.03;;;0.59;100.00
74633;BME280;63139;52.018;8.552;2024-03-07T03:51:32;101502.53;;;0.58;100.00
74633;BME280;63139;52.018;8.552;2024-03-07T03:54:00;101500.00;;;0.57;100.00
74633;BME280;63139;52.018;8.552;2024-03-07T03:56:28;101498.41;;;0.54;100.00
74633;BME280;63139;52.018;8.552;2024-03-07T03:58:56;101495.84;;;0.53;100.00
74633;BME280;63139;52.018;8.552;2024-03-07T04:01:24;101497.53;;;0.54;100.00
74633;BME280;63139;52.018;8.552;2024-03-07T04:03:54;101493.34;;;0.51;100.00
74633;BME280;63139;52.018;8.552;2024-03-07T04:06:22;101491.66;;;0.50;100.00
74633;BME280;63139;52.018;8.552;2024-03-07T04:08:50;101490.81;;;0.50;100.00
74633;BME280;63139;52.018;8.552;2024-03-07T04:11:21;101487.44;;;0.48;100.00
74633;BME280;63139;52.018;8.552;2024-03-07T04:13:49;101488.28;;;0.48;100.00
74633;BME280;63139;52.018;8.552;2024-03-07T04:16:17;101486.69;;;0.46;100.00
74633;BME280;63139;52.018;8.552;2024-03-07T04:18:45;101479.78;;;0.45;100.00
74633;BME280;63139;52.018;8.552;2024-03-07T04:21:14;101486.09;;;0.41;100.00
74633;BME280;63139;52.018;8.552;2024-03-07T04:23:42;101488.63;;;0.42;100.00
74633;BME280;63139;52.018;8.552;2024-03-07T04:26:13;101490.44;;;0.40;100.00
74633;BME280;63139;52.018;8.552;2024-03-07T04:28:42;101494.75;;;0.41;100.00
74633;BME280;63139;52.018;8.552;2024-03-07T04:31:10;101492.22;;;0.39;100.00
74633;BME280;63139;52.018;8.552;2024-03-07T04:33:38;101488.81;;;0.37;100.00
74633;BME280;63139;52.018;8.552;2024-03-07T04:36:06;101491.44;;;0.37;100.00
74633;BME280;63139;52.018;8.552;2024-03-07T04:38:37;101488.81;;;0.37;100.00
74633;BME280;63139;52.018;8.552;2024-03-07T04:41:04;101490.63;;;0.37;100.00
74633;BME280;63139;52.018;8.552;2024-03-07T04:43:32;101488.00;;;0.37;100.00
74633;BME280;63139;52.018;8.552;2024-03-07T04:46:00;101481.97;;;0.36;100.00
74633;BME280;63139;52.018;8.552;2024-03-07T04:48:28;101484.56;;;0.36;100.00
74633;BME280;63139;52.018;8.552;2024-03-07T04:50:56;101483.63;;;0.37;100.00
74633;BME280;63139;52.018;8.552;2024-03-07T04:53:25;101489.59;;;0.39;100.00
74633;BME280;63139;52.018;8.552;2024-03-07T04:55:54;101492.91;;;0.43;100.00
74633;BME280;63139;52.018;8.552;2024-03-07T04:58:22;101496.03;;;0.50;100.00
74633;BME280;63139;52.018;8.552;2024-03-07T05:00:50;101493.88;;;0.58;100.00
74633;BME280;63139;52.018;8.552;2024-03-07T05:03:18;101493.16;;;0.71;100.00
74633;BME280;63139;52.018;8.552;2024-03-07T05:05:46;101495.03;;;0.85;100.00
74633;BME280;63139;52.018;8.552;2024-03-07T05:08:15;101490.69;;;1.01;100.00
74633;BME280;63139;52.018;8.552;2024-03-07T05:10:43;101491.56;;;1.17;100.00
74633;BME280;63139;52.018;8.552;2024-03-07T05:13:12;101493.22;;;1.34;100.00
74633;BME280;63139;52.018;8.552;2024-03-07T05:15:41;101501.91;;;1.50;100.00
74633;BME280;63139;52.018;8.552;2024-03-07T05:18:09;101489.78;;;1.65;100.00
74633;BME280;63139;52.018;8.552;2024-03-07T05:20:39;101495.06;;;1.79;100.00
74633;BME280;63139;52.018;8.552;2024-03-07T05:23:07;101496.78;;;1.94;100.00
74633;BME280;63139;52.018;8.552;2024-03-07T05:25:38;101493.28;;;2.10;100.00
74633;BME280;63139;52.018;8.552;2024-03-07T05:28:06;101495.03;;;2.25;100.00
74633;BME280;63139;52.018;8.552;2024-03-07T05:30:37;101506.34;;;2.40;100.00
74633;BME280;63139;52.018;8.552;2024-03-07T05:33:05;101499.38;;;2.54;100.00
74633;BME280;63139;52.018;8.552;2024-03-07T05:35:33;101492.59;;;2.66;100.00
74633;BME280;63139;52.018;8.552;2024-03-07T05:38:01;101498.00;;;2.77;100.00
74633;BME280;63139;52.018;8.552;2024-03-07T05:40:31;101498.91;;;2.90;100.00
74633;BME280;63139;52.018;8.552;2024-03-07T05:43:00;101496.59;;;3.00;100.00
74633;BME280;63139;52.018;8.552;2024-03-07T05:45:28;101501.06;;;3.12;100.00
74633;BME280;63139;52.018;8.552;2024-03-07T05:47:57;101491.06;;;3.19;100.00
74633;BME280;63139;52.018;8.552;2024-03-07T05:50:25;101487.84;;;3.28;100.00
74633;BME280;63139;52.018;8.552;2024-03-07T05:52:53;101494.28;;;3.36;100.00
74633;BME280;63139;52.018;8.552;2024-03-07T05:55:21;101493.81;;;3.44;100.00
74633;BME280;63139;52.018;8.552;2024-03-07T05:57:50;101499.41;;;3.52;100.00
74633;BME280;63139;52.018;8.552;2024-03-07T06:00:19;101490.97;;;3.61;100.00
74633;BME280;63139;52.018;8.552;2024-03-07T06:02:56;101497.50;;;3.68;100.00
74633;BME280;63139;52.018;8.552;2024-03-07T06:05:25;101498.03;;;3.73;100.00
74633;BME280;63139;52.018;8.552;2024-03-07T06:07:54;101495.00;;;3.79;100.00
74633;BME280;63139;52.018;8.552;2024-03-07T06:10:23;101486.22;;;3.80;100.00
74633;BME280;63139;52.018;8.552;2024-03-07T06:12:52;101494.59;;;3.85;100.00
74633;BME280;63139;52.018;8.552;2024-03-07T06:15:36;101494.41;;;3.88;100.00
74633;BME280;63139;52.018;8.552;2024-03-07T06:18:06;101485.63;;;3.89;100.00
74633;BME280;63139;52.018;8.552;2024-03-07T06:20:35;101497.88;;;3.89;100.00
74633;BME280;63139;52.018;8.552;2024-03-07T06:23:03;101495.78;;;3.94;100.00
74633;BME280;63139;52.018;8.552;2024-03-07T06:25:32;101491.19;;;3.98;100.00
74633;BME280;63139;52.018;8.552;2024-03-07T06:28:05;101498.97;;;3.99;100.00
74633;BME280;63139;52.018;8.552;2024-03-07T06:30:39;101503.22;;;4.00;100.00
74633;BME280;63139;52.018;8.552;2024-03-07T06:33:09;101502.00;;;4.06;100.00
74633;BME280;63139;52.018;8.552;2024-03-07T06:35:38;101504.53;;;4.07;100.00
74633;BME280;63139;52.018;8.552;2024-03-07T06:38:07;101506.84;;;4.12;100.00
74633;BME280;63139;52.018;8.552;2024-03-07T06:40:35;101504.84;;;4.15;100.00
74633;BME280;63139;52.018;8.552;2024-03-07T06:43:04;101512.41;;;4.20;100.00
74633;BME280;63139;52.018;8.552;2024-03-07T06:45:33;101510.41;;;4.23;100.00
74633;BME280;63139;52.018;8.552;2024-03-07T06:48:03;101506.66;;;4.27;100.00
74633;BME280;63139;52.018;8.552;2024-03-07T06:50:35;101506.44;;;4.30;100.00
74633;BME280;63139;52.018;8.552;2024-03-07T06:53:06;101510.66;;;4.33;100.00
74633;BME280;63139;52.018;8.552;2024-03-07T06:55:35;101505.22;;;4.36;100.00
74633;BME280;63139;52.018;8.552;2024-03-07T06:58:03;101509.22;;;4.42;100.00
74633;BME280;63139;52.018;8.552;2024-03-07T07:00:32;101505.56;;;4.44;100.00
74633;BME280;63139;52.018;8.552;2024-03-07T07:03:04;101511.31;;;4.49;100.00
74633;BME280;63139;52.018;8.552;2024-03-07T07:05:33;101509.94;;;4.56;100.00
74633;BME280;63139;52.018;8.552;2024-03-07T07:08:04;101499.03;;;4.62;100.00
74633;BME280;63139;52.018;8.552;2024-03-07T07:10:34;101496.94;;;4.67;100.00
74633;BME280;63139;52.018;8.552;2024-03-07T07:13:03;101499.16;;;4.74;100.00
74633;BME280;63139;52.018;8.552;2024-03-07T07:15:32;101495.16;;;4.81;100.00
74633;BME280;63139;52.018;8.552;2024-03-07T07:18:02;101497.38;;;4.87;100.00
74633;BME280;63139;52.018;8.552;2024-03-07T07:20:31;101493.13;;;4.97;100.00
74633;BME280;63139;52.018;8.552;2024-03-07T07:23:02;101478.78;;;5.02;100.00
74633;BME280;63139;52.018;8.552;2024-03-07T07:25:31;101488.41;;;5.15;100.00
74633;BME280;63139;52.018;8.552;2024-03-07T07:28:00;101489.75;;;5.20;100.00
74633;BME280;63139;52.018;8.552;2024-03-07T07:30:31;101506.19;;;5.35;100.00
74633;BME280;63139;52.018;8.552;2024-03-07T07:32:58;101505.63;;;5.42;100.00
74633;BME280;63139;52.018;8.552;2024-03-07T07:35:26;101501.47;;;5.40;100.00
74633;BME280;63139;52.018;8.552;2024-03-07T07:37:55;101501.13;;;5.44;100.00
74633;BME280;63139;52.018;8.552;2024-03-07T07:40:25;101500.28;;;5.44;100.00
74633;BME280;63139;52.018;8.552;2024-03-07T07:42:54;101494.94;;;5.45;100.00
74633;BME280;63139;52.018;8.552;2024-03-07T07:45:24;101505.53;;;5.44;100.00
74633;BME280;63139;52.018;8.552;2024-03-07T07:47:52;101506.78;;;5.51;100.00
74633;BME280;63139;52.018;8.552;2024-03-07T07:50:23;101499.56;;;5.42;100.00
74633;BME280;63139;52.018;8.552;2024-03-07T07:52:53;101507.31;;;5.43;100.00
74633;BME280;63139;52.018;8.552;2024-03-07T07:55:22;101496.81;;;5.43;100.00
74633;BME280;63139;52.018;8.552;2024-03-07T07:57:53;101501.13;;;5.44;100.00
74633;BME280;63139;52.018;8.552;2024-03-07T08:00:23;101492.91;;;5.49;100.00
74633;BME280;63139;52.018;8.552;2024-03-07T08:02:53;101500.63;;;5.63;100.00
74633;BME280;63139;52.018;8.552;2024-03-07T08:05:23;101488.75;;;5.70;100.00
74633;BME280;63139;52.018;8.552;2024-03-07T08:07:52;101492.94;;;5.73;100.00
74633;BME280;63139;52.018;8.552;2024-03-07T08:10:23;101487.13;;;5.80;100.00
74633;BME280;63139;52.018;8.552;2024-03-07T08:12:52;101483.00;;;5.89;100.00
74633;BME280;63139;52.018;8.552;2024-03-07T08:15:20;101475.41;;;5.97;100.00
74633;BME280;63139;52.018;8.552;2024-03-07T08:17:48;101471.84;;;6.09;100.00
74633;BME280;63139;52.018;8.552;2024-03-07T08:20:19;101479.28;;;6.15;100.00
74633;BME280;63139;52.018;8.552;2024-03-07T08:22:50;101471.28;;;6.17;100.00
74633;BME280;63139;52.018;8.552;2024-03-07T08:25:20;101475.94;;;6.24;100.00
74633;BME280;63139;52.018;8.552;2024-03-07T08:27:53;101477.69;;;6.37;100.00
74633;BME280;63139;52.018;8.552;2024-03-07T08:30:22;101473.13;;;6.39;100.00
74633;BME280;63139;52.018;8.552;2024-03-07T08:32:51;101472.66;;;6.45;100.00
74633;BME280;63139;52.018;8.552;2024-03-07T08:35:20;101476.00;;;6.47;100.00
74633;BME280;63139;52.018;8.552;2024-03-07T08:37:49;101470.28;;;6.64;100.00
74633;BME280;63139;52.018;8.552;2024-03-07T08:40:21;101470.78;;;6.69;100.00
74633;BME280;63139;52.018;8.552;2024-03-07T08:42:56;101482.50;;;6.65;100.00
74633;BME280;63139;52.018;8.552;2024-03-07T08:45:25;101475.09;;;6.70;100.00
74633;BME280;63139;52.018;8.552;2024-03-07T08:47:54;101479.28;;;6.73;100.00
74633;BME280;63139;52.018;8.552;2024-03-07T08:50:24;101472.69;;;6.78;100.00
74633;BME280;63139;52.018;8.552;2024-03-07T08:52:53;101469.13;;;6.79;100.00
74633;BME280;63139;52.018;8.552;2024-03-07T08:55:23;101466.81;;;6.97;100.00
74633;BME280;63139;52.018;8.552;2024-03-07T08:57:52;101468.13;;;7.14;100.00
74633;BME280;63139;52.018;8.552;2024-03-07T09:00:22;101475.06;;;7.26;100.00
74633;BME280;63139;52.018;8.552;2024-03-07T09:02:54;101477.06;;;7.45;100.00
74633;BME280;63139;52.018;8.552;2024-03-07T09:05:25;101469.06;;;7.78;100.00
74633;BME280;63139;52.018;8.552;2024-03-07T09:07:55;101456.56;;;7.91;100.00
74633;BME280;63139;52.018;8.552;2024-03-07T09:10:23;101464.06;;;7.96;100.00
74633;BME280;63139;52.018;8.552;2024-03-07T09:12:53;101459.66;;;8.17;100.00
74633;BME280;63139;52.018;8.552;2024-03-07T09:15:23;101465.59;;;8.51;100.00
74633;BME280;63139;52.018;8.552;2024-03-07T09:17:51;101453.56;;;8.88;100.00
74633;BME280;63139;52.018;8.552;2024-03-07T09:20:20;101456.69;;;9.13;99.46
74633;BME280;63139;52.018;8.552;2024-03-07T09:22:50;101449.25;;;8.97;99.45
74633;BME280;63139;52.018;8.552;2024-03-07T09:25:22;101448.00;;;8.91;100.00
74633;BME280;63139;52.018;8.552;2024-03-07T09:27:51;101436.91;;;8.98;99.82
74633;BME280;63139;52.018;8.552;2024-03-07T09:30:20;101443.06;;;8.77;100.00
74633;BME280;63139;52.018;8.552;2024-03-07T09:32:54;101449.06;;;8.79;100.00
74633;BME280;63139;52.018;8.552;2024-03-07T09:35:23;101448.00;;;8.91;100.00
74633;BME280;63139;52.018;8.552;2024-03-07T09:37:51;101453.91;;;9.14;100.00
74633;BME280;63139;52.018;8.552;2024-03-07T09:40:21;101442.19;;;8.98;100.00
74633;BME280;63139;52.018;8.552;2024-03-07T09:42:52;101439.69;;;8.96;100.00
74633;BME280;63139;52.018;8.552;2024-03-07T09:45:23;101451.22;;;8.95;99.02
74633;BME280;63139;52.018;8.552;2024-03-07T09:47:57;101453.03;;;8.94;98.78
74633;BME280;63139;52.018;8.552;2024-03-07T09:50:26;101444.09;;;8.86;99.41
74633;BME280;63139;52.018;8.552;2024-03-07T09:52:58;101446.38;;;9.00;100.00
74633;BME280;63139;52.018;8.552;2024-03-07T09:55:27;101459.16;;;9.05;99.95
74633;BME280;63139;52.018;8.552;2024-03-07T09:57:58;101448.16;;;9.00;99.13
74633;BME280;63139;52.018;8.552;2024-03-07T10:00:27;101448.09;;;8.80;100.00
74633;BME280;63139;52.018;8.552;2024-03-07T10:03:02;101457.91;;;8.69;99.71
74633;BME280;63139;52.018;8.552;2024-03-07T10:05:33;101458.31;;;8.64;100.00
74633;BME280;63139;52.018;8.552;2024-03-07T10:08:01;101470.72;;;8.52;100.00
74633;BME280;63139;52.018;8.552;2024-03-07T10:10:30;101458.69;;;8.18;100.00
74633;BME280;63139;52.018;8.552;2024-03-07T10:12:58;101474.22;;;8.00;100.00
74633;BME280;63139;52.018;8.552;2024-03-07T10:15:28;101472.88;;;7.85;100.00
74633;BME280;63139;52.018;8.552;2024-03-07T10:17:56;101473.06;;;7.61;100.00
74633;BME280;63139;52.018;8.552;2024-03-07T10:20:27;101473.50;;;7.23;100.00
74633;BME280;63139;52.018;8.552;2024-03-07T10:22:55;101480.97;;;7.18;100.00
74633;BME280;63139;52.018;8.552;2024-03-07T10:25:25;101485.50;;;7.05;100.00
74633;BME280;63139;52.018;8.552;2024-03-07T10:27:56;101483.72;;;6.94;100.00
74633;BME280;63139;52.018;8.552;2024-03-07T10:30:26;101480.34;;;6.92;100.00
74633;BME280;63139;52.018;8.552;2024-03-07T10:32:55;101479.47;;;6.47;100.00
74633;BME280;63139;52.018;8.552;2024-03-07T10:35:28;101468.41;;;6.66;100.00
74633;BME280;63139;52.018;8.552;2024-03-07T10:37:58;101477.13;;;6.78;100.00
74633;BME280;63139;52.018;8.552;2024-03-07T10:40:29;101476.75;;;6.82;100.00
74633;BME280;63139;52.018;8.552;2024-03-07T10:42:58;101470.78;;;7.03;100.00
74633;BME280;63139;52.018;8.552;2024-03-07T10:45:31;101469.22;;;7.11;100.00
74633;BME280;63139;52.018;8.552;2024-03-07T10:48:03;101469.25;;;6.89;100.00
74633;BME280;63139;52.018;8.552;2024-03-07T10:50:47;101469.59;;;6.95;100.00
74633;BME280;63139;52.018;8.552;2024-03-07T10:53:20;101466.34;;;6.92;100.00
74633;BME280;63139;52.018;8.552;2024-03-07T10:56:08;101461.81;;;6.94;100.00
74633;BME280;63139;52.018;8.552;2024-03-07T10:58:48;101468.75;;;7.06;100.00
74633;BME280;63139;52.018;8.552;2024-03-07T11:01:20;101457.25;;;7.07;100.00
74633;BME280;63139;52.018;8.552;2024-03-07T11:03:51;101467.06;;;7.16;100.00
74633;BME280;63139;52.018;8.552;2024-03-07T11:06:24;101460.97;;;7.16;100.00
74633;BME280;63139;52.018;8.552;2024-03-07T11:08:53;101446.50;;;7.10;100.00
74633;BME280;63139;52.018;8.552;2024-03-07T11:11:22;101453.16;;;7.25;100.00
74633;BME280;63139;52.018;8.552;2024-03-07T11:13:51;101448.81;;;7.35;100.00
74633;BME280;63139;52.018;8.552;2024-03-07T11:16:22;101445.06;;;7.49;100.00
74633;BME280;63139;52.018;8.552;2024-03-07T11:19:24;101446.63;;;7.52;100.00
74633;BME280;63139;52.018;8.552;2024-03-07T11:21:56;101446.97;;;7.58;100.00
74633;BME280;63139;52.018;8.552;2024-03-07T11:24:28;101437.38;;;7.57;100.00
74633;BME280;63139;52.018;8.552;2024-03-07T11:27:03;101435.75;;;7.45;100.00
74633;BME280;63139;52.018;8.552;2024-03-07T11:29:39;101436.06;;;7.63;100.00
74633;BME280;63139;52.018;8.552;2024-03-07T11:32:11;101436.34;;;7.80;100.00
74633;BME280;63139;52.018;8.552;2024-03-07T11:34:41;101435.34;;;7.93;100.00
74633;BME280;63139;52.018;8.552;2024-03-07T11:37:10;101432.09;;;7.89;100.00
74633;BME280;63139;52.018;8.552;2024-03-07T11:39:45;101430.09;;;7.82;100.00
74633;BME280;63139;52.018;8.552;2024-03-07T11:42:24;101420.16;;;7.85;100.00
74633;BME280;63139;52.018;8.552;2024-03-07T11:44:53;101425.88;;;7.90;100.00
74633;BME280;63139;52.018;8.552;2024-03-07T11:47:23;101415.97;;;8.03;100.00
74633;BME280;63139;52.018;8.552;2024-03-07T11:49:52;101415.66;;;8.17;100.00
74633;BME280;63139;52.018;8.552;2024-03-07T11:52:21;101409.09;;;8.12;100.00
74633;BME280;63139;52.018;8.552;2024-03-07T11:54:49;101410.16;;;8.30;100.00
74633;BME280;63139;52.018;8.552;2024-03-07T11:57:19;101404.84;;;8.41;100.00
74633;BME280;63139;52.018;8.552;2024-03-07T11:59:53;101389.75;;;8.53;100.00
74633;BME280;63139;52.018;8.552;2024-03-07T12:02:20;101383.16;;;8.68;100.00
74633;BME280;63139;52.018;8.552;2024-03-07T12:04:49;101386.66;;;8.78;100.00
74633;BME280;63139;52.018;8.552;2024-03-07T12:07:19;101386.41;;;8.91;100.00
74633;BME280;63139;52.018;8.552;2024-03-07T12:09:50;101379.81;;;9.16;100.00
74633;BME280;63139;52.018;8.552;2024-03-07T12:12:22;101380.53;;;9.47;100.00
74633;BME280;63139;52.018;8.552;2024-03-07T12:14:51;101374.13;;;9.59;98.00
74633;BME280;63139;52.018;8.552;2024-03-07T12:17:20;101365.94;;;9.62;98.92
74633;BME280;63139;52.018;8.552;2024-03-07T12:19:50;101365.91;;;9.91;97.89
74633;BME280;63139;52.018;8.552;2024-03-07T12:22:20;101353.13;;;9.77;97.21
74633;BME280;63139;52.018;8.552;2024-03-07T12:25:01;101361.31;;;9.93;96.99
74633;BME280;63139;52.018;8.552;2024-03-07T12:27:30;101344.88;;;9.99;97.54
74633;BME280;63139;52.018;8.552;2024-03-07T12:29:58;101348.88;;;10.22;96.48
74633;BME280;63139;52.018;8.552;2024-03-07T12:32:29;101338.53;;;10.29;93.89
74633;BME280;63139;52.018;8.552;2024-03-07T12:34:58;101341.56;;;10.43;93.17
74633;BME280;63139;52.018;8.552;2024-03-07T12:37:26;101335.44;;;10.33;94.12
74633;BME280;63139;52.018;8.552;2024-03-07T12:39:57;101329.81;;;10.46;95.17
74633;BME280;63139;52.018;8.552;2024-03-07T12:42:29;101321.09;;;10.63;91.94
74633;BME280;63139;52.018;8.552;2024-03-07T12:44:59;101324.78;;;10.98;91.75
74633;BME280;63139;52.018;8.552;2024-03-07T12:47:27;101319.44;;;11.07;90.34
74633;BME280;63139;52.018;8.552;2024-03-07T12:49:55;101311.31;;;10.73;91.44
74633;BME280;63139;52.018;8.552;2024-03-07T12:52:25;101307.13;;;10.71;92.49
74633;BME280;63139;52.018;8.552;2024-03-07T12:54:54;101308.66;;;10.91;88.91
74633;BME280;63139;52.018;8.552;2024-03-07T12:57:22;101300.84;;;10.89;87.15
74633;BME280;63139;52.018;8.552;2024-03-07T12:59:52;101303.72;;;10.78;86.71
74633;BME280;63139;52.018;8.552;2024-03-07T13:02:22;101300.09;;;10.97;87.67